createdAt,value
2019-01-04T00:00:15.008Z,88.87
2019-01-04T00:01:15.835Z,88.67
2019-01-04T00:02:15.059Z,88.77
2019-01-04T00:03:16.190Z,88.52
2019-01-04T00:04:14.968Z,87.99
2019-01-04T00:05:15.040Z,88.21
2019-01-04T00:06:14.947Z,88.31
2019-01-04T00:07:14.967Z,88.21
2019-01-04T00:08:14.932Z,88.21
2019-01-04T00:09:14.923Z,88.52
2019-01-04T00:10:15.117Z,88.42
2019-01-04T00:11:14.928Z,88.10
2019-01-04T00:12:14.887Z,87.79
2019-01-04T00:13:14.873Z,87.89
2019-01-04T00:14:14.875Z,87.58
2019-01-04T00:15:14.859Z,87.99
2019-01-04T00:16:14.848Z,88.21
2019-01-04T00:17:14.818Z,87.58
2019-01-04T00:18:15.068Z,87.68
2019-01-04T00:19:14.801Z,87.74
2019-01-04T00:20:14.823Z,87.89
2019-01-04T00:21:14.809Z,87.74
2019-01-04T00:22:14.774Z,87.64
2019-01-04T00:23:14.812Z,87.33
2019-01-04T00:24:14.760Z,87.33
2019-01-04T00:25:14.806Z,87.43
2019-01-04T00:26:14.770Z,87.43
2019-01-04T00:27:14.740Z,87.23
2019-01-04T00:28:14.733Z,87.33
2019-01-04T00:29:14.717Z,87.33
2019-01-04T00:30:14.682Z,87.43
2019-01-04T00:31:14.698Z,87.43
2019-01-04T00:32:14.688Z,87.54
2019-01-04T00:33:14.683Z,88.06
2019-01-04T00:34:14.668Z,87.74
2019-01-04T00:35:14.735Z,87.54
2019-01-04T00:36:14.635Z,87.43
2019-01-04T00:37:14.622Z,87.64
2019-01-04T00:38:14.624Z,87.54
2019-01-04T00:39:14.634Z,87.43
2019-01-04T00:40:14.588Z,87.23
2019-01-04T00:41:14.942Z,87.33
2019-01-04T00:42:14.570Z,87.33
2019-01-04T00:43:14.584Z,87.54
2019-01-04T00:44:14.559Z,87.74
2019-01-04T00:45:14.576Z,87.74
2019-01-04T00:46:14.539Z,87.43
2019-01-04T00:47:14.523Z,87.64
2019-01-04T00:48:14.534Z,87.43
2019-01-04T00:49:14.530Z,88.06
2019-01-04T00:50:14.532Z,88.17
2019-01-04T00:51:14.503Z,88.17
2019-01-04T00:52:14.496Z,88.96
2019-01-04T00:53:14.464Z,88.23
2019-01-04T00:54:14.455Z,88.34
2019-01-04T00:55:15.299Z,88.44
2019-01-04T00:56:14.457Z,88.23
2019-01-04T00:57:14.423Z,88.54
2019-01-04T00:58:14.422Z,88.23
2019-01-04T00:59:14.386Z,88.34
2019-01-04T01:00:14.403Z,87.81
2019-01-04T01:01:14.402Z,87.98
2019-01-04T01:02:14.366Z,87.46
2019-01-04T01:03:14.349Z,87.56
2019-01-04T01:04:14.347Z,87.60
2019-01-04T01:05:14.343Z,87.77
2019-01-04T01:06:14.347Z,87.56
2019-01-04T01:07:15.528Z,87.56
2019-01-04T01:08:14.316Z,87.92
2019-01-04T01:09:14.360Z,87.56
2019-01-04T01:10:14.273Z,87.46
2019-01-04T01:11:14.279Z,88.09
2019-01-04T01:12:14.267Z,88.19
2019-01-04T01:13:14.259Z,88.44
2019-01-04T01:14:14.246Z,88.82
2019-01-04T01:15:14.258Z,88.61
2019-01-04T01:16:14.214Z,88.29
2019-01-04T01:17:14.225Z,88.61
2019-01-04T01:18:14.197Z,88.40
2019-01-04T01:19:14.219Z,88.50
2019-01-04T01:20:14.163Z,87.98
2019-01-04T01:21:14.162Z,88.71
2019-01-04T01:22:14.177Z,88.19
2019-01-04T01:23:14.143Z,88.19
2019-01-04T01:24:14.176Z,88.50
2019-01-04T01:25:14.191Z,88.82
2019-01-04T01:26:14.124Z,88.50
2019-01-04T01:27:14.141Z,88.40
2019-01-04T01:28:14.096Z,89.03
2019-01-04T01:29:14.091Z,88.92
2019-01-04T01:30:14.107Z,89.03
2019-01-04T01:31:14.070Z,89.76
2019-01-04T01:32:14.086Z,90.08
2019-01-04T01:33:14.054Z,90.70
2019-01-04T01:34:14.042Z,90.08
2019-01-04T01:35:14.027Z,90.39
2019-01-04T01:36:14.029Z,90.18
2019-01-04T01:37:14.026Z,90.08
2019-01-04T01:38:14.029Z,90.18
2019-01-04T01:39:13.983Z,90.28
2019-01-04T01:40:14.009Z,90.59
2019-01-04T01:41:13.975Z,90.91
2019-01-04T01:42:13.958Z,90.81
2019-01-04T01:43:13.947Z,91.18
2019-01-04T01:44:13.954Z,91.02
2019-01-04T01:45:13.949Z,91.02
2019-01-04T01:46:13.929Z,91.12
2019-01-04T01:47:13.903Z,91.75
2019-01-04T01:48:13.902Z,92.16
2019-01-04T01:49:13.886Z,91.85
2019-01-04T01:50:13.937Z,91.96
2019-01-04T01:51:13.885Z,91.85
2019-01-04T01:52:13.858Z,91.85
2019-01-04T01:53:13.832Z,91.96
2019-01-04T01:54:13.851Z,91.96
2019-01-04T01:55:13.823Z,91.96
2019-01-04T01:56:13.827Z,91.96
2019-01-04T01:57:13.844Z,91.96
2019-01-04T01:58:13.788Z,91.96
2019-01-04T01:59:13.799Z,91.85
2019-01-04T02:00:13.766Z,92.00
2019-01-04T02:01:13.773Z,91.89
2019-01-04T02:02:13.794Z,92.06
2019-01-04T02:03:13.734Z,92.42
2019-01-04T02:04:13.712Z,92.06
2019-01-04T02:05:13.739Z,92.27
2019-01-04T02:06:13.723Z,92.21
2019-01-04T02:07:13.706Z,92.58
2019-01-04T02:08:13.683Z,92.69
2019-01-04T02:09:13.660Z,92.63
2019-01-04T02:10:13.670Z,92.79
2019-01-04T02:11:13.656Z,93.36
2019-01-04T02:12:13.677Z,92.94
2019-01-04T02:13:22.894Z,93.15
2019-01-04T02:14:13.629Z,93.36
2019-01-04T02:15:13.601Z,93.26
2019-01-04T02:16:13.602Z,93.42
2019-01-04T02:17:13.622Z,93.74
2019-01-04T02:18:13.572Z,93.99
2019-01-04T02:19:13.603Z,93.88
2019-01-04T02:20:13.585Z,94.05
2019-01-04T02:21:13.548Z,93.88
2019-01-04T02:22:13.571Z,93.95
2019-01-04T02:23:13.582Z,93.84
2019-01-04T02:24:13.533Z,93.78
2019-01-04T02:25:13.534Z,94.26
2019-01-04T02:26:13.520Z,93.95
2019-01-04T02:27:13.528Z,94.15
2019-01-04T02:28:13.487Z,93.74
2019-01-04T02:29:13.458Z,93.74
2019-01-04T02:30:13.476Z,94.09
2019-01-04T02:31:13.458Z,94.05
2019-01-04T02:32:13.485Z,93.78
2019-01-04T02:33:13.483Z,94.09
2019-01-04T02:34:13.573Z,93.78
2019-01-04T02:35:13.407Z,93.88
2019-01-04T02:36:13.472Z,94.51
2019-01-04T02:37:13.409Z,94.26
2019-01-04T02:38:13.402Z,93.95
2019-01-04T02:39:13.439Z,93.74
2019-01-04T02:40:13.405Z,93.74
2019-01-04T02:41:13.366Z,94.09
2019-01-04T02:42:13.362Z,94.20
2019-01-04T02:43:13.382Z,94.30
2019-01-04T02:44:13.325Z,94.40
2019-01-04T02:45:13.317Z,94.30
2019-01-04T02:46:13.321Z,94.51
2019-01-04T02:47:13.346Z,94.62
2019-01-04T02:48:13.357Z,94.57
2019-01-04T02:49:13.331Z,94.36
2019-01-04T02:50:13.284Z,94.15
2019-01-04T02:51:13.290Z,94.15
2019-01-04T02:52:13.225Z,94.62
2019-01-04T02:53:13.224Z,94.62
2019-01-04T02:54:13.259Z,94.57
2019-01-04T02:55:13.262Z,93.95
2019-01-04T02:56:13.210Z,94.30
2019-01-04T02:57:13.198Z,94.26
2019-01-04T02:58:13.216Z,94.15
2019-01-04T02:59:13.161Z,94.26
2019-01-04T03:00:13.182Z,94.40
2019-01-04T03:01:13.180Z,94.26
2019-01-04T03:02:13.151Z,94.51
2019-01-04T03:03:13.169Z,94.46
2019-01-04T03:04:13.113Z,94.40
2019-01-04T03:05:13.139Z,94.51
2019-01-04T03:06:13.141Z,94.51
2019-01-04T03:07:13.118Z,95.03
2019-01-04T03:08:13.070Z,95.25
2019-01-04T03:09:13.072Z,95.45
2019-01-04T03:10:13.065Z,95.25
2019-01-04T03:11:13.037Z,95.25
2019-01-04T03:12:13.091Z,95.20
2019-01-04T03:13:13.038Z,95.09
2019-01-04T03:14:13.042Z,95.20
2019-01-04T03:15:13.039Z,95.14
2019-01-04T03:16:13.010Z,94.99
2019-01-04T03:17:13.070Z,95.03
2019-01-04T03:18:12.992Z,94.99
2019-01-04T03:19:12.975Z,95.25
2019-01-04T03:20:12.988Z,95.25
2019-01-04T03:21:13.040Z,95.45
2019-01-04T03:22:12.972Z,95.41
2019-01-04T03:23:12.939Z,95.25
2019-01-04T03:24:12.932Z,95.41
2019-01-04T03:25:13.003Z,95.09
2019-01-04T03:26:12.891Z,95.25
2019-01-04T03:27:12.918Z,95.35
2019-01-04T03:28:12.933Z,95.25
2019-01-04T03:29:12.948Z,95.31
2019-01-04T03:30:12.931Z,94.99
2019-01-04T03:31:12.857Z,94.78
2019-01-04T03:32:12.869Z,94.93
2019-01-04T03:33:12.840Z,95.03
2019-01-04T03:34:12.853Z,95.03
2019-01-04T03:35:12.813Z,94.46
2019-01-04T03:36:12.789Z,95.25
2019-01-04T03:37:12.807Z,94.72
2019-01-04T03:38:12.772Z,94.78
2019-01-04T03:39:12.813Z,94.72
2019-01-04T03:40:12.793Z,95.09
2019-01-04T03:41:12.765Z,94.46
2019-01-04T03:42:12.740Z,94.82
2019-01-04T03:43:12.721Z,95.31
2019-01-04T03:44:12.756Z,94.40
2019-01-04T03:45:12.710Z,94.30
2019-01-04T03:46:12.696Z,94.30
2019-01-04T03:47:12.678Z,94.26
2019-01-04T03:48:12.708Z,94.46
2019-01-04T03:49:12.686Z,94.15
2019-01-04T03:50:12.696Z,94.46
2019-01-04T03:51:12.647Z,94.57
2019-01-04T03:52:12.644Z,94.57
2019-01-04T03:53:12.646Z,94.57
2019-01-04T03:54:12.615Z,94.36
2019-01-04T03:55:12.620Z,94.57
2019-01-04T03:56:12.615Z,94.46
2019-01-04T03:57:12.636Z,94.46
2019-01-04T03:58:12.597Z,94.57
2019-01-04T03:59:12.632Z,94.46
2019-01-04T04:00:12.655Z,94.57
2019-01-04T04:01:12.571Z,94.57
2019-01-04T04:02:12.577Z,94.57
2019-01-04T04:03:12.599Z,94.57
2019-01-04T04:04:12.500Z,94.36
2019-01-04T04:05:12.496Z,94.68
2019-01-04T04:06:12.566Z,94.99
2019-01-04T04:07:12.508Z,94.99
2019-01-04T04:08:12.451Z,94.89
2019-01-04T04:09:12.446Z,95.09
2019-01-04T04:10:12.442Z,95.20
2019-01-04T04:11:12.464Z,94.99
2019-01-04T04:12:12.543Z,94.89
2019-01-04T04:13:12.462Z,94.68
2019-01-04T04:14:12.455Z,93.95
2019-01-04T04:15:12.385Z,94.62
2019-01-04T04:16:12.509Z,94.78
2019-01-04T04:17:12.438Z,94.36
2019-01-04T04:18:12.430Z,94.15
2019-01-04T04:19:12.409Z,94.05
2019-01-04T04:20:12.339Z,94.89
2019-01-04T04:21:12.383Z,94.82
2019-01-04T04:22:12.365Z,94.62
2019-01-04T04:23:12.330Z,94.68
2019-01-04T04:24:12.339Z,94.99
2019-01-04T04:25:12.328Z,93.99
2019-01-04T04:26:12.319Z,94.36
2019-01-04T04:27:12.300Z,94.82
2019-01-04T04:28:12.315Z,94.78
2019-01-04T04:29:12.269Z,94.57
2019-01-04T04:30:12.252Z,94.51
2019-01-04T04:31:12.243Z,94.57
2019-01-04T04:32:12.233Z,94.51
2019-01-04T04:33:12.211Z,94.46
2019-01-04T04:34:12.271Z,94.82
2019-01-04T04:35:12.200Z,94.15
2019-01-04T04:36:12.173Z,94.57
2019-01-04T04:37:12.174Z,94.62
2019-01-04T04:38:12.211Z,94.72
2019-01-04T04:39:12.170Z,94.93
2019-01-04T04:40:12.159Z,94.82
2019-01-04T04:41:12.135Z,94.99
2019-01-04T04:42:12.121Z,94.62
2019-01-04T04:43:12.135Z,94.57
2019-01-04T04:44:12.135Z,94.57
2019-01-04T04:45:12.115Z,94.57
2019-01-04T04:46:12.079Z,94.62
2019-01-04T04:47:12.097Z,94.15
2019-01-04T04:48:12.091Z,94.72
2019-01-04T04:49:12.047Z,94.36
2019-01-04T04:50:12.083Z,94.05
2019-01-04T04:51:12.031Z,94.57
2019-01-04T04:52:12.056Z,94.05
2019-01-04T04:53:12.010Z,94.26
2019-01-04T04:54:12.017Z,94.36
2019-01-04T04:55:11.992Z,94.26
2019-01-04T04:56:12.042Z,94.26
2019-01-04T04:57:12.007Z,94.20
2019-01-04T04:58:11.968Z,93.99
2019-01-04T04:59:12.030Z,94.26
2019-01-04T05:00:11.955Z,93.78
2019-01-04T05:01:11.920Z,93.84
2019-01-04T05:02:11.975Z,94.26
2019-01-04T05:03:11.909Z,94.26
2019-01-04T05:04:11.901Z,93.78
2019-01-04T05:05:11.892Z,93.74
2019-01-04T05:06:11.908Z,93.84
2019-01-04T05:07:11.956Z,93.95
2019-01-04T05:08:12.156Z,94.05
2019-01-04T05:09:11.855Z,93.84
2019-01-04T05:10:11.894Z,93.95
2019-01-04T05:11:11.824Z,93.84
2019-01-04T05:12:11.819Z,94.05
2019-01-04T05:13:11.827Z,93.74
2019-01-04T05:14:11.807Z,94.26
2019-01-04T05:15:11.802Z,93.74
2019-01-04T05:16:11.773Z,93.95
2019-01-04T05:17:11.776Z,92.90
2019-01-04T05:18:11.766Z,92.79
2019-01-04T05:19:11.730Z,93.42
2019-01-04T05:20:11.735Z,93.01
2019-01-04T05:21:11.758Z,92.90
2019-01-04T05:22:11.775Z,93.21
2019-01-04T05:23:11.802Z,93.21
2019-01-04T05:24:11.690Z,93.01
2019-01-04T05:25:11.688Z,93.11
2019-01-04T05:26:11.743Z,92.90
2019-01-04T05:27:11.694Z,93.11
2019-01-04T05:28:11.670Z,93.21
2019-01-04T05:29:11.668Z,92.90
2019-01-04T05:30:11.668Z,92.48
2019-01-04T05:31:11.631Z,92.79
2019-01-04T05:32:11.693Z,92.90
2019-01-04T05:33:11.617Z,92.69
2019-01-04T05:34:11.597Z,92.48
2019-01-04T05:35:11.604Z,93.11
2019-01-04T05:36:11.590Z,93.11
2019-01-04T05:37:11.581Z,92.48
2019-01-04T05:38:11.652Z,92.69
2019-01-04T05:39:11.523Z,93.01
2019-01-04T05:40:11.528Z,92.79
2019-01-04T05:41:11.495Z,92.79
2019-01-04T05:42:11.540Z,92.58
2019-01-04T05:43:11.585Z,92.79
2019-01-04T05:44:11.511Z,92.58
2019-01-04T05:45:11.579Z,92.27
2019-01-04T05:46:11.564Z,92.27
2019-01-04T05:47:12.327Z,92.27
2019-01-04T05:48:11.460Z,92.27
2019-01-04T05:49:11.429Z,92.44
2019-01-04T05:50:11.453Z,91.96
2019-01-04T05:51:11.447Z,92.38
2019-01-04T05:52:11.391Z,92.13
2019-01-04T05:53:11.402Z,92.16
2019-01-04T05:54:11.420Z,92.23
2019-01-04T05:55:11.396Z,92.27
2019-01-04T05:56:11.413Z,92.44
2019-01-04T05:57:11.346Z,92.33
2019-01-04T05:58:11.407Z,92.33
2019-01-04T05:59:11.337Z,92.23
2019-01-04T06:00:11.345Z,92.23
2019-01-04T06:01:11.392Z,92.23
2019-01-04T06:02:11.309Z,91.91
2019-01-04T06:03:11.344Z,92.02
2019-01-04T06:04:11.294Z,92.54
2019-01-04T06:05:11.284Z,92.13
2019-01-04T06:06:11.266Z,91.60
2019-01-04T06:07:11.253Z,91.60
2019-01-04T06:08:11.302Z,91.91
2019-01-04T06:09:11.271Z,91.81
2019-01-04T06:10:11.291Z,92.02
2019-01-04T06:11:11.235Z,91.81
2019-01-04T06:12:11.239Z,91.91
2019-01-04T06:13:11.264Z,91.91
2019-01-04T06:14:11.300Z,91.87
2019-01-04T06:15:11.426Z,91.87
2019-01-04T06:16:11.168Z,91.98
2019-01-04T06:17:11.209Z,91.25
2019-01-04T06:18:11.161Z,90.83
2019-01-04T06:19:11.231Z,91.03
2019-01-04T06:20:11.186Z,90.52
2019-01-04T06:21:11.279Z,91.25
2019-01-04T06:22:11.106Z,90.72
2019-01-04T06:23:11.164Z,90.93
2019-01-04T06:24:11.085Z,91.03
2019-01-04T06:25:11.082Z,91.03
2019-01-04T06:26:11.112Z,91.35
2019-01-04T06:27:11.094Z,90.72
2019-01-04T06:28:11.107Z,90.62
2019-01-04T06:29:11.021Z,91.25
2019-01-04T06:30:11.011Z,91.03
2019-01-04T06:31:11.013Z,91.98
2019-01-04T06:32:11.001Z,91.98
2019-01-04T06:33:10.981Z,91.83
2019-01-04T06:34:10.988Z,91.98
2019-01-04T06:35:10.996Z,92.29
2019-01-04T06:36:10.962Z,92.50
2019-01-04T06:37:11.010Z,92.82
2019-01-04T06:38:11.228Z,92.40
2019-01-04T06:39:11.088Z,92.82
2019-01-04T06:40:10.923Z,92.92
2019-01-04T06:41:10.929Z,92.71
2019-01-04T06:42:10.936Z,92.92
2019-01-04T06:43:10.871Z,92.40
2019-01-04T06:44:10.877Z,92.92
2019-01-04T06:45:10.854Z,92.29
2019-01-04T06:46:10.846Z,92.50
2019-01-04T06:47:10.887Z,92.08
2019-01-04T06:48:11.122Z,92.19
2019-01-04T06:49:10.846Z,92.19
2019-01-04T06:50:10.829Z,92.19
2019-01-04T06:51:10.801Z,92.08
2019-01-04T06:52:10.804Z,91.98
2019-01-04T06:53:10.773Z,92.08
2019-01-04T06:54:10.775Z,92.08
2019-01-04T06:55:10.910Z,91.98
2019-01-04T06:56:10.739Z,91.77
2019-01-04T06:57:10.717Z,92.60
2019-01-04T06:58:10.947Z,92.50
2019-01-04T06:59:10.894Z,92.71
2019-01-04T07:00:11.826Z,92.71
2019-01-04T07:01:10.738Z,93.02
2019-01-04T07:02:10.676Z,93.86
2019-01-04T07:03:10.681Z,94.07
2019-01-04T07:04:10.714Z,94.34
2019-01-04T07:05:10.675Z,94.34
2019-01-04T07:06:10.674Z,94.34
2019-01-04T07:07:10.711Z,94.70
2019-01-04T07:08:10.674Z,95.32
2019-01-04T07:09:10.776Z,95.95
2019-01-04T07:10:10.676Z,96.43
2019-01-04T07:11:10.593Z,96.11
2019-01-04T07:12:10.614Z,96.68
2019-01-04T07:13:10.583Z,96.33
2019-01-04T07:14:10.647Z,97.10
2019-01-04T07:15:10.540Z,97.00
2019-01-04T07:16:10.539Z,97.00
2019-01-04T07:17:11.347Z,97.62
2019-01-04T07:18:10.533Z,97.62
2019-01-04T07:19:10.513Z,98.25
2019-01-04T07:20:10.512Z,98.14
2019-01-04T07:21:10.526Z,98.04
2019-01-04T07:22:10.473Z,98.35
2019-01-04T07:23:10.490Z,98.04
2019-01-04T07:24:10.528Z,98.04
2019-01-04T07:25:10.513Z,98.29
2019-01-04T07:26:10.505Z,97.83
2019-01-04T07:27:10.495Z,98.14
2019-01-04T07:28:10.413Z,97.89
2019-01-04T07:29:10.394Z,98.14
2019-01-04T07:30:10.396Z,97.72
2019-01-04T07:31:10.419Z,97.83
2019-01-04T07:32:10.396Z,98.14
2019-01-04T07:33:10.375Z,97.94
2019-01-04T07:34:10.342Z,97.62
2019-01-04T07:35:10.350Z,98.10
2019-01-04T07:36:10.338Z,98.14
2019-01-04T07:37:10.387Z,97.62
2019-01-04T07:38:10.329Z,98.04
2019-01-04T07:39:10.292Z,97.94
2019-01-04T07:40:10.266Z,97.31
2019-01-04T07:41:10.290Z,97.58
2019-01-04T07:42:10.265Z,97.52
2019-01-04T07:43:16.295Z,97.41
2019-01-04T07:44:11.265Z,98.25
2019-01-04T07:45:10.207Z,97.89
2019-01-04T07:46:10.223Z,98.04
2019-01-04T07:47:10.231Z,97.72
2019-01-04T07:48:10.255Z,98.04
2019-01-04T07:49:10.199Z,97.99
2019-01-04T07:50:10.254Z,97.83
2019-01-04T07:51:10.170Z,97.62
2019-01-04T07:52:10.133Z,97.99
2019-01-04T07:53:10.160Z,97.62
2019-01-04T07:54:10.147Z,97.89
2019-01-04T07:55:10.150Z,98.25
2019-01-04T07:56:10.123Z,98.14
2019-01-04T07:57:10.153Z,98.25
2019-01-04T07:58:10.156Z,98.31
2019-01-04T07:59:10.094Z,98.56
2019-01-04T08:00:10.065Z,98.41
2019-01-04T08:01:10.037Z,98.31
2019-01-04T08:02:10.050Z,98.41
2019-01-04T08:03:10.065Z,98.35
2019-01-04T08:04:10.042Z,98.41
2019-01-04T08:05:10.038Z,98.52
2019-01-04T08:06:10.025Z,98.41
2019-01-04T08:07:10.100Z,98.41
2019-01-04T08:08:10.001Z,98.72
2019-01-04T08:09:09.977Z,98.41
2019-01-04T08:10:10.037Z,98.31
2019-01-04T08:11:10.140Z,98.21
2019-01-04T08:12:09.959Z,97.89
2019-01-04T08:13:20.476Z,98.41
2019-01-04T08:14:10.005Z,98.21
2019-01-04T08:15:10.759Z,97.99
2019-01-04T08:16:09.895Z,98.21
2019-01-04T08:17:09.918Z,97.95
2019-01-04T08:18:09.932Z,97.99
2019-01-04T08:19:09.888Z,97.85
2019-01-04T08:20:09.873Z,97.95
2019-01-04T08:21:09.878Z,97.85
2019-01-04T08:22:09.862Z,97.64
2019-01-04T08:23:09.876Z,97.64
2019-01-04T08:24:09.825Z,97.95
2019-01-04T08:25:09.831Z,98.05
2019-01-04T08:26:09.816Z,98.26
2019-01-04T08:27:09.800Z,97.85
2019-01-04T08:28:09.779Z,98.05
2019-01-04T08:29:10.793Z,98.05
2019-01-04T08:30:09.750Z,98.05
2019-01-04T08:31:09.734Z,97.85
2019-01-04T08:32:09.732Z,97.95
2019-01-04T08:33:09.793Z,97.95
2019-01-04T08:34:10.123Z,97.64
2019-01-04T08:35:09.960Z,97.59
2019-01-04T08:36:09.729Z,97.59
2019-01-04T08:37:10.192Z,97.53
2019-01-04T08:38:09.884Z,97.49
2019-01-04T08:39:09.977Z,97.17
2019-01-04T08:40:09.804Z,96.97
2019-01-04T08:41:09.765Z,97.07
2019-01-04T08:42:09.654Z,96.76
2019-01-04T08:43:09.631Z,96.55
2019-01-04T08:44:09.886Z,96.66
2019-01-04T08:45:09.651Z,96.86
2019-01-04T08:46:09.616Z,96.66
2019-01-04T08:47:09.619Z,96.66
2019-01-04T08:48:09.596Z,96.34
2019-01-04T08:49:09.682Z,96.55
2019-01-04T08:50:09.562Z,96.44
2019-01-04T08:51:09.613Z,96.86
2019-01-04T08:52:09.523Z,96.50
2019-01-04T08:53:09.518Z,96.50
2019-01-04T08:54:09.501Z,96.82
2019-01-04T08:55:09.529Z,96.50
2019-01-04T08:56:09.525Z,96.50
2019-01-04T08:57:09.510Z,96.92
2019-01-04T08:58:09.461Z,97.03
2019-01-04T08:59:09.449Z,96.92
2019-01-04T09:00:09.474Z,96.61
2019-01-04T09:01:09.438Z,96.71
2019-01-04T09:02:09.426Z,96.50
2019-01-04T09:03:09.452Z,96.71
2019-01-04T09:04:09.388Z,97.03
2019-01-04T09:05:09.391Z,96.61
2019-01-04T09:06:09.373Z,96.61
2019-01-04T09:07:09.398Z,96.40
2019-01-04T09:08:09.371Z,96.50
2019-01-04T09:09:09.396Z,96.56
2019-01-04T09:10:09.390Z,96.67
2019-01-04T09:11:09.354Z,96.40
2019-01-04T09:12:09.316Z,96.40
2019-01-04T09:13:09.342Z,96.77
2019-01-04T09:14:09.356Z,96.77
2019-01-04T09:15:09.283Z,96.67
2019-01-04T09:16:09.326Z,96.36
2019-01-04T09:17:09.402Z,96.56
2019-01-04T09:18:09.253Z,96.56
2019-01-04T09:19:09.281Z,96.77
2019-01-04T09:20:09.300Z,96.56
2019-01-04T09:21:09.247Z,96.36
2019-01-04T09:22:09.232Z,96.46
2019-01-04T09:23:09.259Z,96.67
2019-01-04T09:24:09.310Z,96.46
2019-01-04T09:25:09.227Z,96.36
2019-01-04T09:26:09.206Z,97.09
2019-01-04T09:27:09.870Z,96.98
2019-01-04T09:28:09.149Z,96.88
2019-01-04T09:29:09.167Z,96.98
2019-01-04T09:30:09.343Z,96.36
2019-01-04T09:31:09.153Z,96.98
2019-01-04T09:32:09.189Z,96.77
2019-01-04T09:33:09.910Z,96.88
2019-01-04T09:34:09.133Z,96.98
2019-01-04T09:35:09.156Z,96.88
2019-01-04T09:36:09.126Z,97.09
2019-01-04T09:37:09.116Z,96.98
2019-01-04T09:38:09.230Z,96.88
2019-01-04T09:39:09.302Z,96.98
2019-01-04T09:40:09.232Z,97.40
2019-01-04T09:41:09.326Z,97.19
2019-01-04T09:42:09.394Z,97.09
2019-01-04T09:43:09.052Z,97.92
2019-01-04T09:44:09.026Z,97.50
2019-01-04T09:45:09.029Z,97.61
2019-01-04T09:46:09.039Z,97.88
2019-01-04T09:47:08.979Z,97.61
2019-01-04T09:48:09.001Z,97.81
2019-01-04T09:49:08.950Z,97.56
2019-01-04T09:50:09.894Z,97.92
2019-01-04T09:51:09.044Z,97.67
2019-01-04T09:52:08.963Z,97.81
2019-01-04T09:53:08.970Z,97.50
2019-01-04T09:54:09.091Z,97.71
2019-01-04T09:55:08.922Z,98.02
2019-01-04T09:56:08.885Z,97.81
2019-01-04T09:57:08.866Z,97.81
2019-01-04T09:58:08.915Z,97.88
2019-01-04T09:59:08.847Z,97.67
2019-01-04T10:00:09.098Z,97.67
2019-01-04T10:01:08.901Z,97.67
2019-01-04T10:02:08.925Z,97.98
2019-01-04T10:03:09.349Z,97.77
2019-01-04T10:04:08.786Z,97.67
2019-01-04T10:05:08.798Z,97.67
2019-01-04T10:06:08.798Z,97.88
2019-01-04T10:07:08.881Z,97.77
2019-01-04T10:08:08.971Z,97.88
2019-01-04T10:09:08.769Z,97.88
2019-01-04T10:10:08.779Z,97.67
2019-01-04T10:11:08.716Z,97.56
2019-01-04T10:12:08.703Z,97.56
2019-01-04T10:13:08.918Z,97.62
2019-01-04T10:14:08.773Z,97.20
2019-01-04T10:15:08.675Z,97.62
2019-01-04T10:16:09.251Z,97.14
2019-01-04T10:17:08.731Z,96.79
2019-01-04T10:18:08.666Z,97.00
2019-01-04T10:19:08.814Z,97.10
2019-01-04T10:20:09.966Z,97.62
2019-01-04T10:21:08.719Z,97.41
2019-01-04T10:22:08.655Z,97.41
2019-01-04T10:23:08.867Z,97.20
2019-01-04T10:24:08.925Z,97.41
2019-01-04T10:25:08.655Z,97.52
2019-01-04T10:26:08.573Z,97.83
2019-01-04T10:27:08.558Z,97.72
2019-01-04T10:28:09.395Z,97.41
2019-01-04T10:29:09.396Z,97.62
2019-01-04T10:30:08.516Z,97.72
2019-01-04T10:31:08.607Z,97.62
2019-01-04T10:32:08.587Z,97.83
2019-01-04T10:33:08.533Z,97.72
2019-01-04T10:34:08.504Z,97.62
2019-01-04T10:35:10.700Z,97.68
2019-01-04T10:36:08.603Z,97.72
2019-01-04T10:37:08.824Z,97.72
2019-01-04T10:38:08.714Z,97.89
2019-01-04T10:39:08.514Z,97.47
2019-01-04T10:40:11.242Z,97.72
2019-01-04T10:41:10.291Z,97.27
2019-01-04T10:42:08.814Z,97.47
2019-01-04T10:43:08.647Z,97.78
2019-01-04T10:44:09.703Z,97.78
2019-01-04T10:45:09.401Z,97.01
2019-01-04T10:46:08.982Z,96.85
2019-01-04T10:47:08.443Z,96.75
2019-01-04T10:48:08.374Z,96.59
2019-01-04T10:49:08.481Z,96.08
2019-01-04T10:50:08.316Z,96.64
2019-01-04T10:51:08.615Z,96.80
2019-01-04T10:52:08.497Z,96.39
2019-01-04T10:53:08.326Z,96.28
2019-01-04T10:54:08.273Z,96.64
2019-01-04T10:55:08.281Z,96.85
2019-01-04T10:56:08.276Z,96.85
2019-01-04T10:57:08.240Z,96.75
2019-01-04T10:58:08.432Z,96.70
2019-01-04T10:59:08.236Z,96.75
2019-01-04T11:00:17.516Z,96.70
2019-01-04T11:01:17.525Z,96.39
2019-01-04T11:02:17.608Z,96.33
2019-01-04T11:04:36.942Z,96.39
2019-01-04T11:06:48.937Z,96.39
2019-01-04T11:07:48.053Z,96.80
2019-01-04T11:08:48.380Z,96.70
2019-01-04T11:09:49.471Z,97.12
2019-01-04T11:10:47.724Z,97.53
2019-01-04T11:11:47.548Z,97.12
2019-01-04T11:12:47.552Z,97.74
2019-01-04T11:13:47.522Z,97.22
2019-01-04T11:14:47.508Z,97.58
2019-01-04T11:15:47.493Z,97.43
2019-01-04T11:16:48.293Z,97.58
2019-01-04T11:17:48.294Z,97.33
2019-01-04T11:18:47.436Z,97.85
2019-01-04T11:19:47.525Z,97.89
2019-01-04T11:20:48.382Z,98.10
2019-01-04T11:23:04.116Z,97.95
2019-01-04T11:24:04.127Z,97.99
2019-01-04T11:25:04.074Z,98.57
2019-01-04T11:26:04.070Z,98.26
2019-01-04T11:27:04.789Z,99.30
2019-01-04T11:28:04.756Z,99.10
2019-01-04T11:29:04.002Z,98.99
2019-01-04T11:30:03.981Z,98.99
2019-01-04T11:31:03.967Z,99.10
2019-01-04T11:32:04.748Z,98.78
2019-01-04T11:33:03.949Z,98.32
2019-01-04T11:34:04.767Z,97.95
2019-01-04T11:35:04.070Z,97.53
2019-01-04T11:36:04.786Z,97.95
2019-01-04T11:37:03.874Z,97.59
2019-01-04T11:38:03.845Z,97.33
2019-01-04T11:39:03.911Z,97.33
2019-01-04T11:40:03.880Z,97.64
2019-01-04T11:41:03.860Z,97.85
2019-01-04T11:42:05.248Z,97.53
2019-01-04T11:43:04.747Z,97.64
2019-01-04T11:44:04.297Z,97.28
2019-01-04T11:45:03.824Z,97.17
2019-01-04T11:46:03.893Z,97.64
2019-01-04T11:47:03.807Z,97.91
2019-01-04T11:48:03.891Z,97.49
2019-01-04T11:49:06.360Z,97.49
2019-01-04T11:50:04.747Z,98.22
2019-01-04T11:51:04.026Z,97.22
2019-01-04T11:52:03.716Z,97.33
2019-01-04T11:53:03.770Z,97.38
2019-01-04T11:54:03.763Z,98.22
2019-01-04T11:55:03.801Z,98.16
2019-01-04T11:56:03.718Z,98.05
2019-01-04T11:57:03.731Z,97.91
2019-01-04T11:58:03.700Z,98.16
2019-01-04T11:59:03.820Z,97.95
2019-01-04T12:00:03.638Z,97.64
2019-01-04T12:01:03.647Z,97.95
2019-01-04T12:02:03.632Z,97.95
2019-01-04T12:03:03.778Z,98.88
2019-01-04T12:04:03.623Z,98.57
2019-01-04T12:05:04.373Z,98.22
2019-01-04T12:06:03.802Z,98.32
2019-01-04T12:07:03.575Z,98.57
2019-01-04T12:08:03.579Z,98.78
2019-01-04T12:09:03.572Z,99.41
2019-01-04T12:10:03.779Z,98.47
2019-01-04T12:11:03.552Z,98.88
2019-01-04T12:12:03.538Z,98.32
2019-01-04T12:13:03.537Z,99.10
2019-01-04T12:14:03.502Z,99.10
2019-01-04T12:15:04.531Z,99.05
2019-01-04T12:16:03.667Z,98.84
2019-01-04T12:17:03.452Z,99.05
2019-01-04T12:18:03.477Z,98.99
2019-01-04T12:19:03.412Z,98.53
2019-01-04T12:20:03.459Z,98.84
2019-01-04T12:21:03.465Z,98.74
2019-01-04T12:22:04.307Z,98.53
2019-01-04T12:23:04.293Z,98.88
2019-01-04T12:24:03.403Z,98.74
2019-01-04T12:25:03.436Z,98.32
2019-01-04T12:26:03.382Z,98.94
2019-01-04T12:27:03.426Z,98.88
2019-01-04T12:28:04.615Z,98.43
2019-01-04T12:29:03.319Z,98.22
2019-01-04T12:30:04.848Z,98.74
2019-01-04T12:31:03.312Z,98.16
2019-01-04T12:32:03.336Z,98.63
2019-01-04T12:33:03.441Z,99.15
2019-01-04T12:34:03.297Z,99.15
2019-01-04T12:35:03.314Z,99.20
2019-01-04T12:36:03.243Z,99.41
2019-01-04T12:37:03.336Z,99.15
2019-01-04T12:38:03.254Z,99.26
2019-01-04T12:39:03.229Z,98.88
2019-01-04T12:40:03.285Z,99.15
2019-01-04T12:41:03.223Z,98.88
2019-01-04T12:42:03.215Z,99.77
2019-01-04T12:43:03.314Z,99.93
2019-01-04T12:44:03.203Z,99.57
2019-01-04T12:45:03.186Z,99.15
2019-01-04T12:46:03.258Z,99.41
2019-01-04T12:47:03.145Z,99.72
2019-01-04T12:48:03.164Z,99.41
2019-01-04T12:49:03.252Z,99.51
2019-01-04T12:50:03.225Z,99.41
2019-01-04T12:51:03.316Z,99.41
2019-01-04T12:52:03.762Z,99.67
2019-01-04T12:53:03.895Z,99.77
2019-01-04T12:54:03.094Z,99.88
2019-01-04T12:55:03.049Z,99.77
2019-01-04T12:56:03.155Z,99.88